Mohammedbey — V3TG8 — position and weather

sailwx.info

Track history (hours):
 
Tides and Currents Weather Stations Pressure Air Temp Water Temp Dewpoint Dewpoint Depression Visibility Wind Speed Wind Dir Waves Ship Positions

Mohammedbey

Last reported at 2018-May-18 06:17 UTC. Time now 2018-May-21 07:06 UTC.
Position N 37°07' E 023°48'.

Length 120 m; draft 7.7 m.

Type: Cargo ship. MMSI: 312600000.

Date/timePositionNaut miles runAvg speedWind from/ knotsBaromVisibWave heightAir tempDewpointWater temp
2018-May-18 06:17N 37°07' E 023°48'310.2
2018-May-18 06:00N 37°09' E 023°49'510.2
2018-May-18 05:30N 37°14' E 023°53'610.0
2018-May-18 04:55N 37°19' E 023°57'2910.1
2018-May-18 02:00N 37°43' E 024°17'810.2
2018-May-18 01:13N 37°48' E 024°25'141 9.6
2018-May-17 10:38N 39°52' E 025°51'  
2018-May-14 04:58N 45°09' E 036°29'4 9.5
2018-May-14 04:29N 45°13' E 036°28'5 8.3
2018-May-14 03:53N 45°18' E 036°29'4 9.6
2018-May-14 03:31N 45°20' E 036°34'5 9.4
2018-May-14 03:00N 45°22' E 036°40'5 9.1
2018-May-14 02:31N 45°26' E 036°41'2 3.9
2018-May-14 02:01N 45°28' E 036°41'3 5.2
2018-May-14 01:31N 45°29' E 036°38'0 0.2
2018-May-14 00:50N 45°29' E 036°38'0 0.0
2018-May-14 00:30N 45°29' E 036°38'0 0.0
2018-May-14 00:00N 45°29' E 036°38'0 0.0
2018-May-13 23:30N 45°29' E 036°38'0 0.0
2018-May-13 23:01N 45°29' E 036°38'0 0.0
2018-May-13 22:28N 45°29' E 036°38'0 0.0
2018-May-13 22:00N 45°29' E 036°38'0 0.1
2018-May-13 21:30N 45°29' E 036°38'1 2.5
2018-May-13 21:01N 45°30' E 036°39'  
2018-May-08 13:57N 45°43' E 036°46'4 9.3
2018-May-08 13:30N 45°38' E 036°45'5 9.4
2018-May-08 12:59N 45°34' E 036°45'510.9
2018-May-08 12:30N 45°29' E 036°43'510.9
2018-May-08 12:00N 45°23' E 036°40'4 7.2
2018-May-08 11:30N 45°21' E 036°37'4 7.5
2018-May-08 11:00N 45°19' E 036°32'5 9.4
2018-May-08 10:30N 45°16' E 036°28'4 8.2
2018-May-08 10:00N 45°12' E 036°29'0 0.4
2018-May-08 09:28N 45°11' E 036°29'0 0.0
2018-May-08 08:19N 45°11' E 036°29'0 0.1
2018-May-08 07:58N 45°11' E 036°29'0 0.0
2018-May-08 07:28N 45°11' E 036°29'0 0.0
2018-May-08 06:58N 45°11' E 036°29'0 0.0
2018-May-08 06:25N 45°12' E 036°29'  
Track history (hours):
 
Tides and Currents Weather Stations Pressure Air Temp Water Temp Dewpoint Dewpoint Depression Visibility Wind Speed Wind Dir Waves Ship Positions

Mohammedbey

Last reported at 2018-May-18 06:17 UTC. Time now 2018-May-21 07:06 UTC.
Position N 37°07' E 023°48'.

Length 120 m; draft 7.7 m.

Type: Cargo ship. MMSI: 312600000.

Date/timePositionNaut miles runAvg speedWind from/ knotsBaromVisibWave heightAir tempDewpointWater temp
2018-May-18 06:17N 37°07' E 023°48'310.2
2018-May-18 06:00N 37°09' E 023°49'510.2
2018-May-18 05:30N 37°14' E 023°53'610.0
2018-May-18 04:55N 37°19' E 023°57'2910.1
2018-May-18 02:00N 37°43' E 024°17'810.2
2018-May-18 01:13N 37°48' E 024°25'141 9.6
2018-May-17 10:38N 39°52' E 025°51'  
2018-May-14 04:58N 45°09' E 036°29'4 9.5
2018-May-14 04:29N 45°13' E 036°28'5 8.3
2018-May-14 03:53N 45°18' E 036°29'4 9.6
2018-May-14 03:31N 45°20' E 036°34'5 9.4
2018-May-14 03:00N 45°22' E 036°40'5 9.1
2018-May-14 02:31N 45°26' E 036°41'2 3.9
2018-May-14 02:01N 45°28' E 036°41'3 5.2
2018-May-14 01:31N 45°29' E 036°38'0 0.2
2018-May-14 00:50N 45°29' E 036°38'0 0.0
2018-May-14 00:30N 45°29' E 036°38'0 0.0
2018-May-14 00:00N 45°29' E 036°38'0 0.0
2018-May-13 23:30N 45°29' E 036°38'0 0.0
2018-May-13 23:01N 45°29' E 036°38'0 0.0
2018-May-13 22:28N 45°29' E 036°38'0 0.0
2018-May-13 22:00N 45°29' E 036°38'0 0.1
2018-May-13 21:30N 45°29' E 036°38'1 2.5
2018-May-13 21:01N 45°30' E 036°39'  
2018-May-08 13:57N 45°43' E 036°46'4 9.3
2018-May-08 13:30N 45°38' E 036°45'5 9.4
2018-May-08 12:59N 45°34' E 036°45'510.9
2018-May-08 12:30N 45°29' E 036°43'510.9
2018-May-08 12:00N 45°23' E 036°40'4 7.2
2018-May-08 11:30N 45°21' E 036°37'4 7.5
2018-May-08 11:00N 45°19' E 036°32'5 9.4
2018-May-08 10:30N 45°16' E 036°28'4 8.2
2018-May-08 10:00N 45°12' E 036°29'0 0.4
2018-May-08 09:28N 45°11' E 036°29'0 0.0
2018-May-08 08:19N 45°11' E 036°29'0 0.1
2018-May-08 07:58N 45°11' E 036°29'0 0.0
2018-May-08 07:28N 45°11' E 036°29'0 0.0
2018-May-08 06:58N 45°11' E 036°29'0 0.0
2018-May-08 06:25N 45°12' E 036°29'  

Dump ship's entire track history